sensor_id;sensor_type;location;lat;lon;timestamp;P1;durP1;ratioP1;P2;durP2;ratioP2
61709;SDS011;73500;51.494;5.386;2024-03-02T00:02:13;2.25;;;0.88;;
61709;SDS011;73500;51.494;5.386;2024-03-02T00:04:39;2.22;;;0.77;;
61709;SDS011;73500;51.494;5.386;2024-03-02T00:07:04;2.15;;;0.70;;
61709;SDS011;73500;51.494;5.386;2024-03-02T00:09:31;1.85;;;0.75;;
61709;SDS011;73500;51.494;5.386;2024-03-02T00:11:56;3.30;;;0.80;;
61709;SDS011;73500;51.494;5.386;2024-03-02T00:14:22;1.80;;;0.80;;
61709;SDS011;73500;51.494;5.386;2024-03-02T00:16:49;2.03;;;0.60;;
61709;SDS011;73500;51.494;5.386;2024-03-02T00:19:16;2.10;;;0.88;;
61709;SDS011;73500;51.494;5.386;2024-03-02T00:21:41;0.90;;;0.60;;
61709;SDS011;73500;51.494;5.386;2024-03-02T00:24:08;2.80;;;1.08;;
61709;SDS011;73500;51.494;5.386;2024-03-02T00:26:45;1.38;;;0.50;;
61709;SDS011;73500;51.494;5.386;2024-03-02T00:29:10;1.23;;;0.57;;
61709;SDS011;73500;51.494;5.386;2024-03-02T00:31:40;1.67;;;0.60;;
61709;SDS011;73500;51.494;5.386;2024-03-02T00:34:05;1.85;;;0.60;;
61709;SDS011;73500;51.494;5.386;2024-03-02T00:36:31;1.23;;;0.60;;
61709;SDS011;73500;51.494;5.386;2024-03-02T00:38:56;0.98;;;0.47;;
61709;SDS011;73500;51.494;5.386;2024-03-02T00:41:22;1.67;;;0.60;;
61709;SDS011;73500;51.494;5.386;2024-03-02T00:43:59;1.67;;;0.40;;
61709;SDS011;73500;51.494;5.386;2024-03-02T00:46:33;1.30;;;0.50;;
61709;SDS011;73500;51.494;5.386;2024-03-02T00:49:03;1.35;;;0.60;;
61709;SDS011;73500;51.494;5.386;2024-03-02T00:51:30;1.83;;;0.55;;
61709;SDS011;73500;51.494;5.386;2024-03-02T00:53:59;1.67;;;0.65;;
61709;SDS011;73500;51.494;5.386;2024-03-02T00:56:26;0.70;;;0.40;;
61709;SDS011;73500;51.494;5.386;2024-03-02T00:58:52;1.80;;;0.75;;
61709;SDS011;73500;51.494;5.386;2024-03-02T01:01:18;1.63;;;0.60;;
61709;SDS011;73500;51.494;5.386;2024-03-02T01:03:44;2.10;;;0.68;;
61709;SDS011;73500;51.494;5.386;2024-03-02T01:06:10;0.95;;;0.30;;
61709;SDS011;73500;51.494;5.386;2024-03-02T01:08:35;1.55;;;0.60;;
61709;SDS011;73500;51.494;5.386;2024-03-02T01:11:01;1.65;;;0.60;;
61709;SDS011;73500;51.494;5.386;2024-03-02T01:13:27;1.27;;;0.50;;
61709;SDS011;73500;51.494;5.386;2024-03-02T01:15:52;1.23;;;0.50;;
61709;SDS011;73500;51.494;5.386;2024-03-02T01:18:18;1.08;;;0.50;;
61709;SDS011;73500;51.494;5.386;2024-03-02T01:20:43;1.45;;;0.50;;
61709;SDS011;73500;51.494;5.386;2024-03-02T01:23:09;0.65;;;0.38;;
61709;SDS011;73500;51.494;5.386;2024-03-02T01:25:34;1.45;;;0.50;;
61709;SDS011;73500;51.494;5.386;2024-03-02T01:28:00;1.00;;;0.50;;
61709;SDS011;73500;51.494;5.386;2024-03-02T01:30:26;0.65;;;0.38;;
61709;SDS011;73500;51.494;5.386;2024-03-02T01:32:51;2.05;;;0.47;;
61709;SDS011;73500;51.494;5.386;2024-03-02T01:35:16;0.82;;;0.40;;
61709;SDS011;73500;51.494;5.386;2024-03-02T01:37:42;1.05;;;0.50;;
61709;SDS011;73500;51.494;5.386;2024-03-02T01:40:07;0.80;;;0.40;;
61709;SDS011;73500;51.494;5.386;2024-03-02T01:42:37;0.57;;;0.40;;
61709;SDS011;73500;51.494;5.386;2024-03-02T01:45:04;1.50;;;0.50;;
61709;SDS011;73500;51.494;5.386;2024-03-02T01:47:33;0.93;;;0.50;;
61709;SDS011;73500;51.494;5.386;2024-03-02T01:49:59;1.05;;;0.40;;
61709;SDS011;73500;51.494;5.386;2024-03-02T01:52:25;1.60;;;0.40;;
61709;SDS011;73500;51.494;5.386;2024-03-02T01:54:50;0.82;;;0.30;;
61709;SDS011;73500;51.494;5.386;2024-03-02T01:57:16;0.43;;;0.30;;
61709;SDS011;73500;51.494;5.386;2024-03-02T01:59:42;0.77;;;0.40;;
61709;SDS011;73500;51.494;5.386;2024-03-02T02:02:07;1.13;;;0.47;;
61709;SDS011;73500;51.494;5.386;2024-03-02T02:04:33;0.88;;;0.35;;
61709;SDS011;73500;51.494;5.386;2024-03-02T02:06:58;1.70;;;0.32;;
61709;SDS011;73500;51.494;5.386;2024-03-02T02:09:24;0.60;;;0.30;;
61709;SDS011;73500;51.494;5.386;2024-03-02T02:11:50;0.77;;;0.40;;
61709;SDS011;73500;51.494;5.386;2024-03-02T02:14:16;0.30;;;0.30;;
61709;SDS011;73500;51.494;5.386;2024-03-02T02:16:41;1.50;;;0.40;;
61709;SDS011;73500;51.494;5.386;2024-03-02T02:19:07;0.40;;;0.30;;
61709;SDS011;73500;51.494;5.386;2024-03-02T02:21:32;1.20;;;0.30;;
61709;SDS011;73500;51.494;5.386;2024-03-02T02:23:58;0.65;;;0.40;;
61709;SDS011;73500;51.494;5.386;2024-03-02T02:26:23;0.55;;;0.30;;
61709;SDS011;73500;51.494;5.386;2024-03-02T02:28:49;0.70;;;0.30;;
61709;SDS011;73500;51.494;5.386;2024-03-02T02:31:15;0.40;;;0.30;;
61709;SDS011;73500;51.494;5.386;2024-03-02T02:33:41;1.48;;;0.30;;
61709;SDS011;73500;51.494;5.386;2024-03-02T02:36:07;0.43;;;0.32;;
61709;SDS011;73500;51.494;5.386;2024-03-02T02:38:33;1.05;;;0.40;;
61709;SDS011;73500;51.494;5.386;2024-03-02T02:41:01;0.55;;;0.32;;
61709;SDS011;73500;51.494;5.386;2024-03-02T02:43:27;0.68;;;0.30;;
61709;SDS011;73500;51.494;5.386;2024-03-02T02:45:52;0.60;;;0.40;;
61709;SDS011;73500;51.494;5.386;2024-03-02T02:48:18;0.82;;;0.40;;
61709;SDS011;73500;51.494;5.386;2024-03-02T02:50:43;0.68;;;0.35;;
61709;SDS011;73500;51.494;5.386;2024-03-02T02:53:08;0.70;;;0.40;;
61709;SDS011;73500;51.494;5.386;2024-03-02T02:55:35;0.50;;;0.40;;
61709;SDS011;73500;51.494;5.386;2024-03-02T02:58:02;1.30;;;0.43;;
61709;SDS011;73500;51.494;5.386;2024-03-02T03:00:28;0.95;;;0.45;;
61709;SDS011;73500;51.494;5.386;2024-03-02T03:02:53;1.15;;;0.40;;
61709;SDS011;73500;51.494;5.386;2024-03-02T03:05:19;0.45;;;0.30;;
61709;SDS011;73500;51.494;5.386;2024-03-02T03:07:44;2.40;;;0.60;;
61709;SDS011;73500;51.494;5.386;2024-03-02T03:10:10;0.80;;;0.40;;
61709;SDS011;73500;51.494;5.386;2024-03-02T03:12:35;0.70;;;0.40;;
61709;SDS011;73500;51.494;5.386;2024-03-02T03:15:01;0.82;;;0.30;;
61709;SDS011;73500;51.494;5.386;2024-03-02T03:17:28;0.43;;;0.30;;
61709;SDS011;73500;51.494;5.386;2024-03-02T03:19:53;0.70;;;0.32;;
61709;SDS011;73500;51.494;5.386;2024-03-02T03:22:19;0.52;;;0.30;;
61709;SDS011;73500;51.494;5.386;2024-03-02T03:24:45;1.50;;;0.30;;
61709;SDS011;73500;51.494;5.386;2024-03-02T03:27:10;0.68;;;0.40;;
61709;SDS011;73500;51.494;5.386;2024-03-02T03:29:38;1.52;;;0.50;;
61709;SDS011;73500;51.494;5.386;2024-03-02T03:32:04;1.20;;;0.38;;
61709;SDS011;73500;51.494;5.386;2024-03-02T03:34:34;0.50;;;0.30;;
61709;SDS011;73500;51.494;5.386;2024-03-02T03:37:00;1.20;;;0.70;;
61709;SDS011;73500;51.494;5.386;2024-03-02T03:39:25;0.75;;;0.40;;
61709;SDS011;73500;51.494;5.386;2024-03-02T03:41:50;0.73;;;0.40;;
61709;SDS011;73500;51.494;5.386;2024-03-02T03:44:16;1.05;;;0.40;;
61709;SDS011;73500;51.494;5.386;2024-03-02T03:46:41;0.68;;;0.40;;
61709;SDS011;73500;51.494;5.386;2024-03-02T03:49:07;0.90;;;0.40;;
61709;SDS011;73500;51.494;5.386;2024-03-02T03:51:32;0.60;;;0.30;;
61709;SDS011;73500;51.494;5.386;2024-03-02T03:53:58;0.40;;;0.30;;
61709;SDS011;73500;51.494;5.386;2024-03-02T03:56:24;1.27;;;0.55;;
61709;SDS011;73500;51.494;5.386;2024-03-02T03:58:49;0.50;;;0.30;;
61709;SDS011;73500;51.494;5.386;2024-03-02T04:01:14;0.95;;;0.40;;
61709;SDS011;73500;51.494;5.386;2024-03-02T04:03:39;0.30;;;0.30;;
61709;SDS011;73500;51.494;5.386;2024-03-02T04:06:05;0.93;;;0.32;;
61709;SDS011;73500;51.494;5.386;2024-03-02T04:08:30;1.58;;;0.40;;
61709;SDS011;73500;51.494;5.386;2024-03-02T04:10:55;0.90;;;0.40;;
61709;SDS011;73500;51.494;5.386;2024-03-02T04:13:21;0.60;;;0.30;;
61709;SDS011;73500;51.494;5.386;2024-03-02T04:15:46;1.60;;;0.38;;
61709;SDS011;73500;51.494;5.386;2024-03-02T04:18:12;0.75;;;0.30;;
61709;SDS011;73500;51.494;5.386;2024-03-02T04:20:37;0.30;;;0.30;;
61709;SDS011;73500;51.494;5.386;2024-03-02T04:23:02;0.75;;;0.35;;
61709;SDS011;73500;51.494;5.386;2024-03-02T04:25:28;0.75;;;0.30;;
61709;SDS011;73500;51.494;5.386;2024-03-02T04:27:53;1.02;;;0.25;;
61709;SDS011;73500;51.494;5.386;2024-03-02T04:30:18;0.57;;;0.35;;
61709;SDS011;73500;51.494;5.386;2024-03-02T04:32:44;0.20;;;0.20;;
61709;SDS011;73500;51.494;5.386;2024-03-02T04:35:11;0.88;;;0.40;;
61709;SDS011;73500;51.494;5.386;2024-03-02T04:37:37;1.13;;;0.40;;
61709;SDS011;73500;51.494;5.386;2024-03-02T04:40:03;0.55;;;0.30;;
61709;SDS011;73500;51.494;5.386;2024-03-02T04:42:29;0.40;;;0.35;;
61709;SDS011;73500;51.494;5.386;2024-03-02T04:44:54;0.90;;;0.30;;
61709;SDS011;73500;51.494;5.386;2024-03-02T04:47:19;0.50;;;0.30;;
61709;SDS011;73500;51.494;5.386;2024-03-02T04:49:44;0.30;;;0.30;;
61709;SDS011;73500;51.494;5.386;2024-03-02T04:52:10;2.28;;;0.40;;
61709;SDS011;73500;51.494;5.386;2024-03-02T04:54:35;0.95;;;0.47;;
61709;SDS011;73500;51.494;5.386;2024-03-02T04:57:21;0.75;;;0.35;;
61709;SDS011;73500;51.494;5.386;2024-03-02T04:59:46;0.47;;;0.30;;
61709;SDS011;73500;51.494;5.386;2024-03-02T05:02:11;0.22;;;0.20;;
61709;SDS011;73500;51.494;5.386;2024-03-02T05:04:39;0.52;;;0.30;;
61709;SDS011;73500;51.494;5.386;2024-03-02T05:07:04;0.60;;;0.30;;
61709;SDS011;73500;51.494;5.386;2024-03-02T05:09:30;0.43;;;0.30;;
61709;SDS011;73500;51.494;5.386;2024-03-02T05:11:55;1.43;;;0.43;;
61709;SDS011;73500;51.494;5.386;2024-03-02T05:14:54;1.20;;;0.40;;
61709;SDS011;73500;51.494;5.386;2024-03-02T05:17:20;1.08;;;0.30;;
61709;SDS011;73500;51.494;5.386;2024-03-02T05:19:45;0.68;;;0.30;;
61709;SDS011;73500;51.494;5.386;2024-03-02T05:22:10;1.65;;;0.40;;
61709;SDS011;73500;51.494;5.386;2024-03-02T05:24:35;0.20;;;0.20;;
61709;SDS011;73500;51.494;5.386;2024-03-02T05:27:01;0.73;;;0.30;;
61709;SDS011;73500;51.494;5.386;2024-03-02T05:29:27;0.95;;;0.30;;
61709;SDS011;73500;51.494;5.386;2024-03-02T05:31:52;1.60;;;0.40;;
61709;SDS011;73500;51.494;5.386;2024-03-02T05:34:17;0.60;;;0.22;;
61709;SDS011;73500;51.494;5.386;2024-03-02T05:36:43;0.75;;;0.30;;
61709;SDS011;73500;51.494;5.386;2024-03-02T05:39:08;0.93;;;0.30;;
61709;SDS011;73500;51.494;5.386;2024-03-02T05:41:35;0.65;;;0.40;;
61709;SDS011;73500;51.494;5.386;2024-03-02T05:44:01;0.85;;;0.30;;
61709;SDS011;73500;51.494;5.386;2024-03-02T05:46:26;0.30;;;0.28;;
61709;SDS011;73500;51.494;5.386;2024-03-02T05:48:52;0.45;;;0.20;;
61709;SDS011;73500;51.494;5.386;2024-03-02T05:51:17;1.38;;;0.28;;
61709;SDS011;73500;51.494;5.386;2024-03-02T05:53:43;1.00;;;0.30;;
61709;SDS011;73500;51.494;5.386;2024-03-02T05:56:08;1.02;;;0.30;;
61709;SDS011;73500;51.494;5.386;2024-03-02T05:58:34;0.30;;;0.30;;
61709;SDS011;73500;51.494;5.386;2024-03-02T06:01:22;1.00;;;0.30;;
61709;SDS011;73500;51.494;5.386;2024-03-02T06:03:53;0.60;;;0.30;;
61709;SDS011;73500;51.494;5.386;2024-03-02T06:06:19;0.68;;;0.30;;
61709;SDS011;73500;51.494;5.386;2024-03-02T06:08:46;0.95;;;0.30;;
61709;SDS011;73500;51.494;5.386;2024-03-02T06:11:11;0.60;;;0.30;;
61709;SDS011;73500;51.494;5.386;2024-03-02T06:13:36;0.45;;;0.30;;
61709;SDS011;73500;51.494;5.386;2024-03-02T06:16:01;0.22;;;0.20;;
61709;SDS011;73500;51.494;5.386;2024-03-02T06:18:27;0.20;;;0.20;;
61709;SDS011;73500;51.494;5.386;2024-03-02T06:20:52;1.27;;;0.40;;
61709;SDS011;73500;51.494;5.386;2024-03-02T06:23:18;0.85;;;0.30;;
61709;SDS011;73500;51.494;5.386;2024-03-02T06:25:43;0.38;;;0.30;;
61709;SDS011;73500;51.494;5.386;2024-03-02T06:28:09;0.93;;;0.30;;
61709;SDS011;73500;51.494;5.386;2024-03-02T06:30:34;0.50;;;0.30;;
61709;SDS011;73500;51.494;5.386;2024-03-02T06:32:59;0.75;;;0.28;;
61709;SDS011;73500;51.494;5.386;2024-03-02T06:35:25;1.15;;;0.40;;
61709;SDS011;73500;51.494;5.386;2024-03-02T06:37:50;1.55;;;0.52;;
61709;SDS011;73500;51.494;5.386;2024-03-02T06:40:16;0.57;;;0.30;;
61709;SDS011;73500;51.494;5.386;2024-03-02T06:42:41;0.52;;;0.20;;
61709;SDS011;73500;51.494;5.386;2024-03-02T06:45:06;0.45;;;0.30;;
61709;SDS011;73500;51.494;5.386;2024-03-02T06:47:32;0.28;;;0.17;;
61709;SDS011;73500;51.494;5.386;2024-03-02T06:49:57;1.85;;;0.38;;
61709;SDS011;73500;51.494;5.386;2024-03-02T06:52:23;0.30;;;0.28;;
61709;SDS011;73500;51.494;5.386;2024-03-02T06:54:49;0.82;;;0.30;;
61709;SDS011;73500;51.494;5.386;2024-03-02T06:57:14;2.00;;;0.30;;
61709;SDS011;73500;51.494;5.386;2024-03-02T06:59:41;0.93;;;0.40;;
61709;SDS011;73500;51.494;5.386;2024-03-02T07:02:06;0.20;;;0.20;;
61709;SDS011;73500;51.494;5.386;2024-03-02T07:04:33;0.28;;;0.20;;
61709;SDS011;73500;51.494;5.386;2024-03-02T07:06:59;1.48;;;0.38;;
61709;SDS011;73500;51.494;5.386;2024-03-02T07:09:24;0.57;;;0.30;;
61709;SDS011;73500;51.494;5.386;2024-03-02T07:11:50;0.20;;;0.20;;
61709;SDS011;73500;51.494;5.386;2024-03-02T07:14:16;1.20;;;0.40;;
61709;SDS011;73500;51.494;5.386;2024-03-02T07:16:41;0.73;;;0.30;;
61709;SDS011;73500;51.494;5.386;2024-03-02T07:19:08;0.57;;;0.30;;
61709;SDS011;73500;51.494;5.386;2024-03-02T07:21:33;1.20;;;0.38;;
61709;SDS011;73500;51.494;5.386;2024-03-02T07:23:59;2.25;;;0.40;;
61709;SDS011;73500;51.494;5.386;2024-03-02T07:26:25;1.08;;;0.50;;
61709;SDS011;73500;51.494;5.386;2024-03-02T07:28:50;0.90;;;0.30;;
61709;SDS011;73500;51.494;5.386;2024-03-02T07:31:16;2.20;;;0.50;;
61709;SDS011;73500;51.494;5.386;2024-03-02T07:33:43;0.57;;;0.30;;
61709;SDS011;73500;51.494;5.386;2024-03-02T07:36:09;1.27;;;0.40;;
61709;SDS011;73500;51.494;5.386;2024-03-02T07:38:34;1.00;;;0.30;;
61709;SDS011;73500;51.494;5.386;2024-03-02T07:41:00;0.73;;;0.40;;
61709;SDS011;73500;51.494;5.386;2024-03-02T07:43:26;1.38;;;0.57;;
61709;SDS011;73500;51.494;5.386;2024-03-02T07:45:51;1.70;;;0.30;;
61709;SDS011;73500;51.494;5.386;2024-03-02T07:48:17;0.65;;;0.35;;
61709;SDS011;73500;51.494;5.386;2024-03-02T07:50:43;1.20;;;0.40;;
61709;SDS011;73500;51.494;5.386;2024-03-02T07:53:08;0.80;;;0.40;;
61709;SDS011;73500;51.494;5.386;2024-03-02T07:55:34;1.13;;;0.40;;
61709;SDS011;73500;51.494;5.386;2024-03-02T07:58:00;2.08;;;0.57;;
61709;SDS011;73500;51.494;5.386;2024-03-02T08:00:26;2.53;;;0.55;;
61709;SDS011;73500;51.494;5.386;2024-03-02T08:02:52;1.75;;;0.60;;
61709;SDS011;73500;51.494;5.386;2024-03-02T08:05:17;3.03;;;0.50;;
61709;SDS011;73500;51.494;5.386;2024-03-02T08:07:46;2.47;;;0.68;;
61709;SDS011;73500;51.494;5.386;2024-03-02T08:10:12;2.05;;;0.50;;
61709;SDS011;73500;51.494;5.386;2024-03-02T08:12:38;1.95;;;0.68;;
61709;SDS011;73500;51.494;5.386;2024-03-02T08:15:03;1.52;;;0.50;;
61709;SDS011;73500;51.494;5.386;2024-03-02T08:17:29;2.33;;;0.50;;
61709;SDS011;73500;51.494;5.386;2024-03-02T08:19:55;2.25;;;0.60;;
61709;SDS011;73500;51.494;5.386;2024-03-02T08:22:20;2.78;;;0.77;;
61709;SDS011;73500;51.494;5.386;2024-03-02T08:24:46;1.88;;;0.50;;
61709;SDS011;73500;51.494;5.386;2024-03-02T08:27:12;1.02;;;0.30;;
61709;SDS011;73500;51.494;5.386;2024-03-02T08:29:37;1.50;;;0.50;;
61709;SDS011;73500;51.494;5.386;2024-03-02T08:32:03;2.45;;;0.52;;
61709;SDS011;73500;51.494;5.386;2024-03-02T08:34:29;2.08;;;0.50;;
61709;SDS011;73500;51.494;5.386;2024-03-02T08:36:54;2.75;;;0.35;;
61709;SDS011;73500;51.494;5.386;2024-03-02T08:39:19;2.35;;;0.75;;
61709;SDS011;73500;51.494;5.386;2024-03-02T08:41:45;3.35;;;1.05;;
61709;SDS011;73500;51.494;5.386;2024-03-02T08:44:11;1.27;;;0.50;;
61709;SDS011;73500;51.494;5.386;2024-03-02T08:46:38;1.40;;;0.40;;
61709;SDS011;73500;51.494;5.386;2024-03-02T08:49:04;0.95;;;0.47;;
61709;SDS011;73500;51.494;5.386;2024-03-02T08:51:29;3.33;;;0.40;;
61709;SDS011;73500;51.494;5.386;2024-03-02T08:53:55;2.15;;;0.50;;
61709;SDS011;73500;51.494;5.386;2024-03-02T08:56:22;1.10;;;0.40;;
61709;SDS011;73500;51.494;5.386;2024-03-02T08:58:49;2.20;;;0.55;;
61709;SDS011;73500;51.494;5.386;2024-03-02T09:01:14;2.28;;;0.70;;
61709;SDS011;73500;51.494;5.386;2024-03-02T09:03:40;2.33;;;0.40;;
61709;SDS011;73500;51.494;5.386;2024-03-02T09:06:09;2.30;;;0.57;;
61709;SDS011;73500;51.494;5.386;2024-03-02T09:08:35;1.45;;;0.50;;
61709;SDS011;73500;51.494;5.386;2024-03-02T09:11:01;1.60;;;0.50;;
61709;SDS011;73500;51.494;5.386;2024-03-02T09:13:27;2.70;;;0.70;;
61709;SDS011;73500;51.494;5.386;2024-03-02T09:15:53;2.53;;;0.60;;
61709;SDS011;73500;51.494;5.386;2024-03-02T09:18:18;1.10;;;0.47;;
61709;SDS011;73500;51.494;5.386;2024-03-02T09:20:43;1.98;;;0.60;;
61709;SDS011;73500;51.494;5.386;2024-03-02T09:23:08;1.67;;;0.50;;
61709;SDS011;73500;51.494;5.386;2024-03-02T09:25:34;2.28;;;0.50;;
61709;SDS011;73500;51.494;5.386;2024-03-02T09:27:59;3.50;;;0.60;;
61709;SDS011;73500;51.494;5.386;2024-03-02T09:30:24;2.88;;;0.85;;
61709;SDS011;73500;51.494;5.386;2024-03-02T09:32:50;1.73;;;0.45;;
61709;SDS011;73500;51.494;5.386;2024-03-02T09:35:15;1.95;;;0.40;;
61709;SDS011;73500;51.494;5.386;2024-03-02T09:37:40;1.27;;;0.43;;
61709;SDS011;73500;51.494;5.386;2024-03-02T09:40:06;1.92;;;0.57;;
61709;SDS011;73500;51.494;5.386;2024-03-02T09:42:31;1.40;;;0.40;;
61709;SDS011;73500;51.494;5.386;2024-03-02T09:44:57;1.10;;;0.47;;
61709;SDS011;73500;51.494;5.386;2024-03-02T09:47:23;0.90;;;0.47;;
61709;SDS011;73500;51.494;5.386;2024-03-02T09:49:48;1.92;;;0.55;;
61709;SDS011;73500;51.494;5.386;2024-03-02T09:52:14;2.25;;;0.73;;
61709;SDS011;73500;51.494;5.386;2024-03-02T09:54:39;1.50;;;0.60;;
61709;SDS011;73500;51.494;5.386;2024-03-02T09:57:05;1.20;;;0.40;;
61709;SDS011;73500;51.494;5.386;2024-03-02T09:59:30;1.85;;;0.60;;
61709;SDS011;73500;51.494;5.386;2024-03-02T10:01:59;1.75;;;0.60;;
61709;SDS011;73500;51.494;5.386;2024-03-02T10:04:26;2.58;;;0.50;;
61709;SDS011;73500;51.494;5.386;2024-03-02T10:07:09;2.17;;;0.50;;
61709;SDS011;73500;51.494;5.386;2024-03-02T10:09:34;1.98;;;0.63;;
61709;SDS011;73500;51.494;5.386;2024-03-02T10:12:06;2.15;;;0.60;;
61709;SDS011;73500;51.494;5.386;2024-03-02T10:14:33;2.08;;;0.60;;
61709;SDS011;73500;51.494;5.386;2024-03-02T10:17:05;1.50;;;0.40;;
61709;SDS011;73500;51.494;5.386;2024-03-02T10:19:32;3.05;;;0.50;;
61709;SDS011;73500;51.494;5.386;2024-03-02T10:21:59;2.42;;;0.57;;
61709;SDS011;73500;51.494;5.386;2024-03-02T10:24:42;1.30;;;0.40;;
61709;SDS011;73500;51.494;5.386;2024-03-02T10:27:17;1.70;;;0.52;;
61709;SDS011;73500;51.494;5.386;2024-03-02T10:29:47;2.08;;;0.50;;
61709;SDS011;73500;51.494;5.386;2024-03-02T10:32:13;1.42;;;0.43;;
61709;SDS011;73500;51.494;5.386;2024-03-02T10:34:42;2.33;;;0.60;;
61709;SDS011;73500;51.494;5.386;2024-03-02T10:37:10;1.58;;;0.50;;
61709;SDS011;73500;51.494;5.386;2024-03-02T10:39:36;1.80;;;0.40;;
61709;SDS011;73500;51.494;5.386;2024-03-02T10:42:04;1.73;;;0.47;;
61709;SDS011;73500;51.494;5.386;2024-03-02T10:44:31;1.05;;;0.40;;
61709;SDS011;73500;51.494;5.386;2024-03-02T10:46:57;2.17;;;0.60;;
61709;SDS011;73500;51.494;5.386;2024-03-02T10:49:25;2.47;;;0.60;;
61709;SDS011;73500;51.494;5.386;2024-03-02T10:51:51;2.58;;;0.50;;
61709;SDS011;73500;51.494;5.386;2024-03-02T10:54:17;3.22;;;0.60;;
61709;SDS011;73500;51.494;5.386;2024-03-02T10:56:44;1.83;;;0.60;;
61709;SDS011;73500;51.494;5.386;2024-03-02T10:59:27;1.45;;;0.50;;
61709;SDS011;73500;51.494;5.386;2024-03-02T11:01:58;3.33;;;0.70;;
61709;SDS011;73500;51.494;5.386;2024-03-02T11:04:27;1.35;;;0.45;;
61709;SDS011;73500;51.494;5.386;2024-03-02T11:07:07;2.15;;;0.60;;
61709;SDS011;73500;51.494;5.386;2024-03-02T11:09:35;1.30;;;0.57;;
61709;SDS011;73500;51.494;5.386;2024-03-02T11:14:31;0.65;;;0.35;;
61709;SDS011;73500;51.494;5.386;2024-03-02T11:16:58;2.65;;;0.57;;
61709;SDS011;73500;51.494;5.386;2024-03-02T11:19:27;2.20;;;0.65;;
61709;SDS011;73500;51.494;5.386;2024-03-02T11:21:53;3.70;;;0.63;;
61709;SDS011;73500;51.494;5.386;2024-03-02T11:26:48;2.22;;;0.70;;
61709;SDS011;73500;51.494;5.386;2024-03-02T11:32:00;2.17;;;0.80;;
61709;SDS011;73500;51.494;5.386;2024-03-02T11:34:33;2.35;;;0.50;;
61709;SDS011;73500;51.494;5.386;2024-03-02T11:37:03;3.67;;;0.60;;
61709;SDS011;73500;51.494;5.386;2024-03-02T11:39:29;3.92;;;0.70;;
61709;SDS011;73500;51.494;5.386;2024-03-02T11:41:55;2.70;;;0.70;;
61709;SDS011;73500;51.494;5.386;2024-03-02T11:44:22;5.03;;;0.60;;
61709;SDS011;73500;51.494;5.386;2024-03-02T11:47:21;3.08;;;0.70;;
61709;SDS011;73500;51.494;5.386;2024-03-02T11:49:44;5.70;;;0.73;;
61709;SDS011;73500;51.494;5.386;2024-03-02T11:52:19;1.95;;;0.60;;
61709;SDS011;73500;51.494;5.386;2024-03-02T11:54:46;4.45;;;0.98;;
61709;SDS011;73500;51.494;5.386;2024-03-02T11:57:16;2.65;;;0.88;;
61709;SDS011;73500;51.494;5.386;2024-03-02T11:59:47;5.88;;;0.80;;
61709;SDS011;73500;51.494;5.386;2024-03-02T12:02:18;4.53;;;0.80;;
61709;SDS011;73500;51.494;5.386;2024-03-02T12:04:45;4.28;;;0.90;;
61709;SDS011;73500;51.494;5.386;2024-03-02T12:07:18;3.58;;;0.98;;
61709;SDS011;73500;51.494;5.386;2024-03-02T12:09:45;4.38;;;0.90;;
61709;SDS011;73500;51.494;5.386;2024-03-02T12:12:11;4.60;;;1.05;;
61709;SDS011;73500;51.494;5.386;2024-03-02T12:14:37;2.97;;;0.80;;
61709;SDS011;73500;51.494;5.386;2024-03-02T12:17:05;3.85;;;0.90;;
61709;SDS011;73500;51.494;5.386;2024-03-02T12:19:31;4.88;;;0.80;;
61709;SDS011;73500;51.494;5.386;2024-03-02T12:21:57;4.65;;;0.80;;
61709;SDS011;73500;51.494;5.386;2024-03-02T12:24:23;5.43;;;1.05;;
61709;SDS011;73500;51.494;5.386;2024-03-02T12:26:50;1.90;;;0.70;;
61709;SDS011;73500;51.494;5.386;2024-03-02T12:29:16;5.10;;;1.05;;
61709;SDS011;73500;51.494;5.386;2024-03-02T12:31:44;2.80;;;0.70;;
61709;SDS011;73500;51.494;5.386;2024-03-02T12:34:13;3.10;;;1.00;;
61709;SDS011;73500;51.494;5.386;2024-03-02T12:36:40;4.03;;;0.85;;
61709;SDS011;73500;51.494;5.386;2024-03-02T12:39:07;4.70;;;1.05;;
61709;SDS011;73500;51.494;5.386;2024-03-02T12:41:35;3.03;;;0.88;;
61709;SDS011;73500;51.494;5.386;2024-03-02T12:44:01;2.08;;;0.70;;
61709;SDS011;73500;51.494;5.386;2024-03-02T12:46:26;4.10;;;1.00;;
61709;SDS011;73500;51.494;5.386;2024-03-02T12:48:52;2.70;;;0.85;;
61709;SDS011;73500;51.494;5.386;2024-03-02T12:51:17;2.15;;;0.65;;
61709;SDS011;73500;51.494;5.386;2024-03-02T12:53:42;4.05;;;1.00;;
61709;SDS011;73500;51.494;5.386;2024-03-02T12:56:08;4.82;;;0.90;;
61709;SDS011;73500;51.494;5.386;2024-03-02T12:58:38;4.00;;;0.95;;
61709;SDS011;73500;51.494;5.386;2024-03-02T13:01:06;2.50;;;0.75;;
61709;SDS011;73500;51.494;5.386;2024-03-02T13:03:40;1.77;;;0.70;;
61709;SDS011;73500;51.494;5.386;2024-03-02T13:06:06;1.60;;;0.50;;
61709;SDS011;73500;51.494;5.386;2024-03-02T13:08:33;2.15;;;0.70;;
61709;SDS011;73500;51.494;5.386;2024-03-02T13:10:58;2.25;;;0.80;;
61709;SDS011;73500;51.494;5.386;2024-03-02T13:13:24;2.45;;;0.77;;
61709;SDS011;73500;51.494;5.386;2024-03-02T13:15:49;3.17;;;1.00;;
61709;SDS011;73500;51.494;5.386;2024-03-02T13:18:17;3.70;;;0.80;;
61709;SDS011;73500;51.494;5.386;2024-03-02T13:20:43;3.38;;;0.80;;
61709;SDS011;73500;51.494;5.386;2024-03-02T13:23:08;4.75;;;0.85;;
61709;SDS011;73500;51.494;5.386;2024-03-02T13:25:33;3.40;;;0.65;;
61709;SDS011;73500;51.494;5.386;2024-03-02T13:27:58;4.32;;;0.95;;
61709;SDS011;73500;51.494;5.386;2024-03-02T13:30:24;2.70;;;0.70;;
61709;SDS011;73500;51.494;5.386;2024-03-02T13:32:49;3.60;;;0.60;;
61709;SDS011;73500;51.494;5.386;2024-03-02T13:35:15;2.55;;;0.80;;
61709;SDS011;73500;51.494;5.386;2024-03-02T13:37:40;3.05;;;0.68;;
61709;SDS011;73500;51.494;5.386;2024-03-02T13:40:05;3.05;;;0.80;;
61709;SDS011;73500;51.494;5.386;2024-03-02T13:42:31;3.72;;;0.95;;
61709;SDS011;73500;51.494;5.386;2024-03-02T13:44:57;2.33;;;0.60;;
61709;SDS011;73500;51.494;5.386;2024-03-02T13:47:22;3.08;;;0.70;;
61709;SDS011;73500;51.494;5.386;2024-03-02T13:49:48;2.38;;;0.68;;
61709;SDS011;73500;51.494;5.386;2024-03-02T13:52:15;2.28;;;0.70;;
61709;SDS011;73500;51.494;5.386;2024-03-02T13:54:42;4.55;;;0.70;;
61709;SDS011;73500;51.494;5.386;2024-03-02T13:57:08;3.25;;;0.80;;
61709;SDS011;73500;51.494;5.386;2024-03-02T13:59:34;3.80;;;0.70;;
61709;SDS011;73500;51.494;5.386;2024-03-02T14:02:01;2.47;;;0.80;;
61709;SDS011;73500;51.494;5.386;2024-03-02T14:04:27;2.63;;;0.77;;
61709;SDS011;73500;51.494;5.386;2024-03-02T14:06:52;2.05;;;0.68;;
61709;SDS011;73500;51.494;5.386;2024-03-02T14:09:18;3.40;;;0.90;;
61709;SDS011;73500;51.494;5.386;2024-03-02T14:11:45;2.20;;;0.70;;
61709;SDS011;73500;51.494;5.386;2024-03-02T14:14:11;2.30;;;0.73;;
61709;SDS011;73500;51.494;5.386;2024-03-02T14:16:36;3.17;;;0.73;;
61709;SDS011;73500;51.494;5.386;2024-03-02T14:19:01;4.38;;;0.90;;
61709;SDS011;73500;51.494;5.386;2024-03-02T14:21:29;2.25;;;0.70;;
61709;SDS011;73500;51.494;5.386;2024-03-02T14:23:54;2.00;;;0.60;;
61709;SDS011;73500;51.494;5.386;2024-03-02T14:26:20;2.80;;;0.80;;
61709;SDS011;73500;51.494;5.386;2024-03-02T14:28:45;3.95;;;0.75;;
61709;SDS011;73500;51.494;5.386;2024-03-02T14:31:11;2.70;;;0.60;;
61709;SDS011;73500;51.494;5.386;2024-03-02T14:33:36;2.03;;;0.63;;
61709;SDS011;73500;51.494;5.386;2024-03-02T14:36:01;1.80;;;0.60;;
61709;SDS011;73500;51.494;5.386;2024-03-02T14:38:27;2.33;;;0.90;;
61709;SDS011;73500;51.494;5.386;2024-03-02T14:40:52;2.40;;;0.60;;
61709;SDS011;73500;51.494;5.386;2024-03-02T14:43:17;1.92;;;0.50;;
61709;SDS011;73500;51.494;5.386;2024-03-02T14:45:43;3.63;;;0.55;;
61709;SDS011;73500;51.494;5.386;2024-03-02T14:48:08;1.48;;;0.57;;
61709;SDS011;73500;51.494;5.386;2024-03-02T14:50:33;3.22;;;0.77;;
61709;SDS011;73500;51.494;5.386;2024-03-02T14:52:59;2.28;;;0.60;;